Time,TemperatureF,DewpointF,PressureIn,WindDirection,WindDirectionDegrees,WindSpeedMPH,WindSpeedGustMPH,Humidity,HourlyPrecipIn,Conditions,Clouds,dailyrainin,SoftwareType,DateUTC
2013-04-01 00:22:00,36.0,28.0,30.00,WNW,290,3.0,8.0,71,0.00,,,-99.99,,2013-04-01 07:22:00,
2013-04-01 00:32:00,36.0,28.0,30.00,WNW,290,3.0,8.0,71,0.00,,,-99.99,,2013-04-01 07:32:00,
2013-04-01 00:42:00,36.0,28.0,30.00,WNW,290,3.0,8.0,71,0.00,,,-99.99,,2013-04-01 07:42:00,
2013-04-01 01:22:00,36.0,26.0,29.99,West,260,5.0,14.0,68,0.00,,,-99.99,,2013-04-01 08:22:00,
2013-04-01 01:32:00,36.0,26.0,29.99,West,260,5.0,14.0,68,0.00,,,-99.99,,2013-04-01 08:32:00,
2013-04-01 01:43:00,36.0,26.0,29.99,West,260,5.0,14.0,68,0.00,,,-99.99,,2013-04-01 08:43:00,
2013-04-01 02:22:00,35.0,23.0,30.01,NW,320,7.0,14.0,61,0.00,,,-99.99,,2013-04-01 09:22:00,
2013-04-01 02:33:00,35.0,23.0,30.01,NW,320,7.0,14.0,61,0.00,,,-99.99,,2013-04-01 09:33:00,
2013-04-01 02:42:00,35.0,23.0,30.01,NW,320,7.0,14.0,61,0.00,,,-99.99,,2013-04-01 09:42:00,
2013-04-01 03:23:00,35.0,19.0,30.00,WNW,300,3.0,10.0,51,0.00,,,-99.99,,2013-04-01 10:23:00,
2013-04-01 03:33:00,35.0,19.0,30.00,WNW,300,3.0,10.0,51,0.00,,,-99.99,,2013-04-01 10:33:00,
2013-04-01 03:42:00,35.0,19.0,30.00,WNW,300,3.0,10.0,51,0.00,,,-99.99,,2013-04-01 10:42:00,
2013-04-01 04:23:00,35.0,15.0,30.02,West,270,2.0,8.0,44,0.00,,,-99.99,,2013-04-01 11:23:00,
2013-04-01 04:32:00,35.0,15.0,30.02,West,270,2.0,8.0,44,0.00,,,-99.99,,2013-04-01 11:32:00,
2013-04-01 04:42:00,35.0,15.0,30.02,West,270,2.0,8.0,44,0.00,,,-99.99,,2013-04-01 11:42:00,
2013-04-01 05:22:00,34.0,15.0,30.05,NW,310,2.0,7.0,45,0.00,,,-99.99,,2013-04-01 12:22:00,
2013-04-01 05:32:00,34.0,15.0,30.05,NW,310,2.0,7.0,45,0.00,,,-99.99,,2013-04-01 12:32:00,
2013-04-01 05:42:00,34.0,15.0,30.05,NW,310,2.0,7.0,45,0.00,,,-99.99,,2013-04-01 12:42:00,
2013-04-01 06:22:00,35.0,14.0,30.06,WNW,290,2.0,8.0,41,0.00,,,-99.99,,2013-04-01 13:22:00,
2013-04-01 06:32:00,35.0,14.0,30.06,WNW,290,2.0,8.0,41,0.00,,,-99.99,,2013-04-01 13:32:00,
2013-04-01 06:42:00,35.0,14.0,30.06,WNW,290,2.0,8.0,41,0.00,,,-99.99,,2013-04-01 13:42:00,
2013-04-01 07:22:00,34.0,15.0,30.09,WNW,290,3.0,12.0,45,0.00,,,-99.99,,2013-04-01 14:22:00,
2013-04-01 07:32:00,34.0,15.0,30.09,WNW,290,3.0,12.0,45,0.00,,,-99.99,,2013-04-01 14:32:00,
2013-04-01 07:42:00,34.0,15.0,30.09,WNW,290,3.0,12.0,45,0.00,,,-99.99,,2013-04-01 14:42:00,
2013-04-01 08:22:00,37.0,18.0,30.09,NW,320,5.0,10.0,45,0.00,,,-99.99,,2013-04-01 15:22:00,
2013-04-01 08:33:00,37.0,18.0,30.09,NW,320,5.0,10.0,45,0.00,,,-99.99,,2013-04-01 15:33:00,
2013-04-01 08:43:00,37.0,18.0,30.09,NW,320,5.0,10.0,45,0.00,,,-99.99,,2013-04-01 15:43:00,
2013-04-01 09:23:00,42.0,12.0,30.09,West,260,5.0,11.0,29,0.00,,,-99.99,,2013-04-01 16:23:00,
2013-04-01 09:33:00,42.0,12.0,30.09,West,260,5.0,11.0,29,0.00,,,-99.99,,2013-04-01 16:33:00,
2013-04-01 09:42:00,42.0,12.0,30.09,West,260,5.0,11.0,29,0.00,,,-99.99,,2013-04-01 16:42:00,
2013-04-01 10:32:00,46.0,6.0,30.09,West,270,6.0,15.0,19,0.00,,,-99.99,,2013-04-01 17:32:00,
2013-04-01 11:22:00,48.0,5.0,30.08,WNW,300,6.0,14.0,17,0.00,,,-99.99,,2013-04-01 18:22:00,
2013-04-01 11:32:00,48.0,5.0,30.08,WNW,300,6.0,14.0,17,0.00,,,-99.99,,2013-04-01 18:32:00,
2013-04-01 11:42:00,48.0,5.0,30.08,WNW,300,6.0,14.0,17,0.00,,,-99.99,,2013-04-01 18:42:00,
2013-04-01 12:23:00,50.0,8.0,30.09,North,350,6.0,13.0,18,0.00,,,-99.99,,2013-04-01 19:23:00,
2013-04-01 12:32:00,50.0,8.0,30.09,North,350,6.0,13.0,18,0.00,,,-99.99,,2013-04-01 19:32:00,
2013-04-01 12:42:00,50.0,8.0,30.09,North,350,6.0,13.0,18,0.00,,,-99.99,,2013-04-01 19:42:00,
2013-04-01 13:22:00,51.0,9.0,30.07,West,270,7.0,17.0,18,0.00,,,-99.99,,2013-04-01 20:22:00,
2013-04-01 13:32:00,51.0,9.0,30.07,West,270,7.0,17.0,18,0.00,,,-99.99,,2013-04-01 20:32:00,
2013-04-01 13:42:00,51.0,9.0,30.07,West,270,7.0,17.0,18,0.00,,,-99.99,,2013-04-01 20:42:00,
2013-04-01 15:22:00,53.0,9.0,30.03,NW,320,6.0,16.0,17,0.00,,,-99.99,,2013-04-01 22:22:00,
2013-04-01 15:33:00,53.0,9.0,30.03,NW,320,6.0,16.0,17,0.00,,,-99.99,,2013-04-01 22:33:00,
2013-04-01 16:22:00,53.0,20.0,30.03,West,280,5.0,11.0,27,0.00,,,-99.99,,2013-04-01 23:22:00,
2013-04-01 16:32:00,53.0,20.0,30.03,West,280,5.0,11.0,27,0.00,,,-99.99,,2013-04-01 23:32:00,
2013-04-01 16:42:00,53.0,20.0,30.03,West,280,5.0,11.0,27,0.00,,,-99.99,,2013-04-01 23:42:00,
2013-04-01 17:22:00,52.0,20.0,30.02,WNW,300,3.0,9.0,28,0.00,,,-99.99,,2013-04-02 00:22:00,
2013-04-01 17:32:00,52.0,20.0,30.02,WNW,300,3.0,9.0,28,0.00,,,-99.99,,2013-04-02 00:32:00,
2013-04-01 17:42:00,52.0,20.0,30.02,WNW,300,3.0,9.0,28,0.00,,,-99.99,,2013-04-02 00:42:00,
2013-04-01 18:22:00,50.0,20.0,30.02,NNW,330,4.0,11.0,30,0.00,,,-99.99,,2013-04-02 01:22:00,
2013-04-01 18:32:00,50.0,20.0,30.02,NNW,330,4.0,11.0,30,0.00,,,-99.99,,2013-04-02 01:32:00,
2013-04-01 18:42:00,50.0,20.0,30.02,NNW,330,4.0,11.0,30,0.00,,,-99.99,,2013-04-02 01:42:00,
2013-04-01 19:22:00,45.0,20.0,30.06,NW,310,3.0,10.0,37,0.00,,,-99.99,,2013-04-02 02:22:00,
2013-04-01 19:32:00,45.0,20.0,30.06,NW,310,3.0,10.0,37,0.00,,,-99.99,,2013-04-02 02:32:00,
2013-04-01 20:22:00,40.0,29.0,30.07,North,350,1.0,5.0,64,0.00,,,-99.99,,2013-04-02 03:22:00,
2013-04-01 20:33:00,40.0,29.0,30.07,North,350,1.0,5.0,64,0.00,,,-99.99,,2013-04-02 03:33:00,
2013-04-01 20:43:00,40.0,29.0,30.07,North,350,1.0,5.0,64,0.00,,,-99.99,,2013-04-02 03:43:00,
2013-04-01 21:22:00,38.0,31.0,30.04,North,350,4.0,12.0,75,0.00,,,-99.99,,2013-04-02 04:22:00,
2013-04-01 21:32:00,38.0,31.0,30.04,North,350,4.0,12.0,75,0.00,,,-99.99,,2013-04-02 04:32:00,
2013-04-01 21:42:00,38.0,31.0,30.04,North,350,4.0,12.0,75,0.00,,,-99.99,,2013-04-02 04:42:00,
2013-04-01 22:22:00,36.0,29.0,30.04,West,260,3.0,7.0,74,0.00,,,-99.99,,2013-04-02 05:22:00,
2013-04-01 22:32:00,36.0,29.0,30.04,West,260,3.0,7.0,74,0.00,,,-99.99,,2013-04-02 05:32:00,
2013-04-01 22:42:00,36.0,29.0,30.04,West,260,3.0,7.0,74,0.00,,,-99.99,,2013-04-02 05:42:00,
2013-04-01 23:22:00,37.0,26.0,30.03,WNW,300,3.0,7.0,64,0.00,,,-99.99,,2013-04-02 06:22:00,
2013-04-01 23:32:00,37.0,26.0,30.03,WNW,300,3.0,7.0,64,0.00,,,-99.99,,2013-04-02 06:32:00,
2013-04-01 23:42:00,37.0,26.0,30.03,WNW,300,3.0,7.0,64,0.00,,,-99.99,,2013-04-02 06:42:00,